Time;durP1;ratioP1;P1;durP2;ratioP2;P2;SDS_P1;SDS_P2;PMS_P1;PMS_P2;Temp;Humidity;BMP_temperature;BMP_pressure;BME280_temperature;BME280_humidity;BME280_pressure;Samples;Min_cycle;Max_cycle;Signal;HPM_P1;HPM_P2
2023/12/11 00:01:04;;;;;;;15.03;2.97;;;;;;;;;;5027188;28;20034;-80
2023/12/11 00:03:30;;;;;;;30.40;4.37;;;;;;;;;;5036994;28;20029;-81
2023/12/11 00:05:56;;;;;;;28.43;4.37;;;;;;;;;;5026809;28;20026;-80
2023/12/11 00:08:23;;;;;;;17.60;3.47;;;;;;;;;;5029785;28;20014;-83
2023/12/11 00:10:49;;;;;;;20.37;4.20;;;;;;;;;;5032249;28;20026;-84
2023/12/11 00:13:15;;;;;;;29.13;4.70;;;;;;;;;;5040268;28;20026;-85
2023/12/11 00:15:41;;;;;;;20.10;4.47;;;;;;;;;;5027304;28;20081;-80
2023/12/11 00:18:12;;;;;;;19.40;4.10;;;;;;;;;;5034611;28;20029;-81
2023/12/11 00:20:38;;;;;;;20.57;4.03;;;;;;;;;;5043000;28;20029;-81
2023/12/11 00:23:06;;;;;;;29.90;5.30;;;;;;;;;;5025552;28;20488;-81
2023/12/11 00:25:32;;;;;;;25.50;5.13;;;;;;;;;;5040728;28;20041;-81
2023/12/11 00:27:58;;;;;;;24.53;4.27;;;;;;;;;;5025498;28;20080;-79
2023/12/11 00:30:24;;;;;;;23.37;4.17;;;;;;;;;;5025612;28;20030;-80
2023/12/11 00:32:53;;;;;;;17.77;3.27;;;;;;;;;;5036439;28;20108;-80
2023/12/11 00:35:19;;;;;;;14.77;3.40;;;;;;;;;;5030507;28;20149;-82
2023/12/11 00:37:45;;;;;;;21.50;4.07;;;;;;;;;;5030339;28;20033;-81
2023/12/11 00:40:12;;;;;;;23.40;3.97;;;;;;;;;;5023736;28;20060;-81
2023/12/11 00:42:38;;;;;;;18.07;4.23;;;;;;;;;;5043132;28;20044;-80
2023/12/11 00:45:04;;;;;;;22.27;3.50;;;;;;;;;;5027265;28;20037;-80
2023/12/11 00:47:30;;;;;;;27.30;4.33;;;;;;;;;;5024635;28;20550;-81
2023/12/11 00:49:56;;;;;;;19.77;3.43;;;;;;;;;;5022786;28;20029;-79
2023/12/11 00:52:22;;;;;;;23.90;3.23;;;;;;;;;;5023490;28;20034;-81
2023/12/11 00:54:48;;;;;;;35.27;4.50;;;;;;;;;;5022158;28;20029;-80
2023/12/11 00:57:15;;;;;;;27.20;4.70;;;;;;;;;;5020331;28;20029;-80
2023/12/11 00:59:41;;;;;;;19.63;4.37;;;;;;;;;;5021979;28;20122;-80
2023/12/11 01:02:07;;;;;;;18.80;4.13;;;;;;;;;;5023140;28;20056;-80
2023/12/11 01:04:34;;;;;;;30.87;5.53;;;;;;;;;;5024032;28;20033;-80
2023/12/11 01:07:00;;;;;;;29.17;4.97;;;;;;;;;;5021536;28;20043;-80
2023/12/11 01:09:26;;;;;;;24.47;4.23;;;;;;;;;;5022401;28;20029;-80
2023/12/11 01:11:52;;;;;;;27.23;4.63;;;;;;;;;;5021099;28;20021;-80
2023/12/11 01:14:18;;;;;;;20.10;4.10;;;;;;;;;;5020123;28;20094;-81
2023/12/11 01:16:44;;;;;;;19.63;3.67;;;;;;;;;;5022029;28;20029;-80
2023/12/11 01:19:10;;;;;;;23.73;4.47;;;;;;;;;;5021723;28;20033;-80
2023/12/11 01:21:36;;;;;;;28.50;4.93;;;;;;;;;;5021188;28;20463;-80
2023/12/11 01:24:02;;;;;;;26.90;3.83;;;;;;;;;;5022332;28;20040;-81
2023/12/11 01:26:28;;;;;;;24.63;4.00;;;;;;;;;;5020514;28;20048;-80
2023/12/11 01:28:55;;;;;;;19.50;3.87;;;;;;;;;;5021021;28;20025;-80
2023/12/11 01:31:21;;;;;;;20.17;4.30;;;;;;;;;;5037179;28;20033;-81
2023/12/11 01:33:47;;;;;;;28.53;4.37;;;;;;;;;;5021914;28;20026;-80
2023/12/11 01:36:13;;;;;;;26.87;3.50;;;;;;;;;;5023088;28;20037;-80
2023/12/11 01:38:39;;;;;;;22.77;3.70;;;;;;;;;;5045105;28;20052;-80
2023/12/11 01:41:05;;;;;;;20.40;3.90;;;;;;;;;;5020859;28;20179;-81
2023/12/11 01:43:34;;;;;;;28.07;4.50;;;;;;;;;;5037960;28;20052;-80
2023/12/11 01:46:05;;;;;;;20.70;5.27;;;;;;;;;;5023464;28;20029;-81
2023/12/11 01:48:32;;;;;;;27.50;5.17;;;;;;;;;;5021674;28;20041;-81
2023/12/11 01:50:58;;;;;;;26.43;3.47;;;;;;;;;;5021214;28;20393;-80
2023/12/11 01:53:25;;;;;;;22.47;3.97;;;;;;;;;;5018575;28;20048;-81
2023/12/11 01:55:51;;;;;;;23.40;3.97;;;;;;;;;;5021743;28;20029;-80
2023/12/11 01:58:18;;;;;;;26.27;5.13;;;;;;;;;;5024046;28;20103;-80
2023/12/11 02:00:44;;;;;;;19.57;3.37;;;;;;;;;;5019180;28;20029;-81
2023/12/11 02:03:10;;;;;;;22.30;3.73;;;;;;;;;;5019967;28;20121;-81
2023/12/11 02:05:37;;;;;;;20.77;3.77;;;;;;;;;;5020328;28;20048;-80
2023/12/11 02:08:04;;;;;;;22.07;4.20;;;;;;;;;;5022377;28;20029;-80
2023/12/11 02:10:32;;;;;;;21.20;3.80;;;;;;;;;;5041558;28;20029;-81
2023/12/11 02:12:58;;;;;;;22.67;3.80;;;;;;;;;;5024501;28;20032;-81
2023/12/11 02:15:40;;;;;;;22.63;3.97;;;;;;;;;;5022803;28;20049;-81
2023/12/11 02:18:08;;;;;;;20.98;4.20;;;;;;;;;;5038551;28;20064;-80
2023/12/11 02:20:34;;;;;;;16.30;5.17;;;;;;;;;;5022402;28;20030;-80
2023/12/11 02:23:01;;;;;;;15.30;3.20;;;;;;;;;;5021219;28;20416;-80
2023/12/11 02:25:30;;;;;;;17.70;3.67;;;;;;;;;;5022641;28;20076;-82
2023/12/11 02:27:56;;;;;;;22.73;4.23;;;;;;;;;;5021766;28;20052;-80
2023/12/11 02:30:22;;;;;;;20.80;3.23;;;;;;;;;;5039817;28;20030;-80
2023/12/11 02:32:51;;;;;;;25.03;4.27;;;;;;;;;;5019243;28;20029;-80
2023/12/11 02:35:17;;;;;;;23.90;4.30;;;;;;;;;;5021001;28;20622;-80
2023/12/11 02:37:43;;;;;;;18.50;3.17;;;;;;;;;;5023268;28;20060;-81
2023/12/11 02:40:09;;;;;;;21.63;4.50;;;;;;;;;;5022239;28;20033;-80
2023/12/11 02:42:35;;;;;;;18.13;3.40;;;;;;;;;;5023113;28;20132;-81
2023/12/11 02:45:01;;;;;;;28.73;5.17;;;;;;;;;;5023372;28;20033;-81
2023/12/11 02:47:28;;;;;;;19.67;4.20;;;;;;;;;;5023889;28;20033;-81
2023/12/11 02:49:54;;;;;;;26.13;3.87;;;;;;;;;;5024246;28;20366;-79
2023/12/11 02:52:20;;;;;;;21.63;4.00;;;;;;;;;;5022890;28;20048;-80
2023/12/11 02:54:46;;;;;;;21.53;3.80;;;;;;;;;;5039846;28;20040;-81
2023/12/11 02:57:12;;;;;;;22.13;4.20;;;;;;;;;;5023449;28;20060;-80
2023/12/11 02:59:38;;;;;;;20.07;3.70;;;;;;;;;;5023308;28;20037;-80
2023/12/11 03:02:04;;;;;;;23.67;4.37;;;;;;;;;;5040209;28;20025;-80
2023/12/11 03:04:30;;;;;;;22.13;3.60;;;;;;;;;;5021240;28;20074;-81
2023/12/11 03:06:56;;;;;;;31.90;3.87;;;;;;;;;;5038689;28;20069;-81
2023/12/11 03:09:22;;;;;;;20.80;4.60;;;;;;;;;;5021442;28;20056;-80
2023/12/11 03:11:48;;;;;;;17.07;3.80;;;;;;;;;;5024768;28;20022;-81
2023/12/11 03:14:14;;;;;;;15.77;3.23;;;;;;;;;;5024051;28;20039;-80
2023/12/11 03:16:40;;;;;;;21.50;4.13;;;;;;;;;;5023042;28;20037;-81
2023/12/11 03:19:06;;;;;;;23.07;3.67;;;;;;;;;;5021498;28;20025;-79
2023/12/11 03:21:33;;;;;;;26.53;4.60;;;;;;;;;;5039543;28;20702;-81
2023/12/11 03:23:59;;;;;;;14.03;3.23;;;;;;;;;;5041944;28;20025;-80
2023/12/11 03:26:25;;;;;;;22.67;4.30;;;;;;;;;;5025810;28;20032;-81
2023/12/11 03:28:51;;;;;;;24.23;4.37;;;;;;;;;;5039677;28;20558;-81
2023/12/11 03:31:17;;;;;;;19.90;3.87;;;;;;;;;;5029340;28;20029;-80
2023/12/11 03:33:43;;;;;;;19.13;3.60;;;;;;;;;;5025041;28;20029;-81
2023/12/11 03:36:09;;;;;;;20.40;3.93;;;;;;;;;;5029775;28;20148;-81
2023/12/11 03:38:35;;;;;;;24.57;4.07;;;;;;;;;;5043953;28;20072;-81
2023/12/11 03:41:01;;;;;;;16.10;3.43;;;;;;;;;;5048604;28;20044;-81
2023/12/11 03:43:30;;;;;;;20.93;3.93;;;;;;;;;;5045245;28;20033;-80
2023/12/11 03:45:56;;;;;;;22.80;3.67;;;;;;;;;;5028172;28;20052;-80
2023/12/11 03:48:22;;;;;;;19.80;3.53;;;;;;;;;;5027676;28;20040;-80
2023/12/11 03:50:48;;;;;;;15.20;3.73;;;;;;;;;;5028436;28;20040;-80
2023/12/11 03:53:15;;;;;;;17.77;3.27;;;;;;;;;;5047021;28;20040;-80
2023/12/11 03:55:41;;;;;;;27.77;3.40;;;;;;;;;;5028265;28;20041;-80
2023/12/11 03:58:07;;;;;;;17.23;3.40;;;;;;;;;;5028316;28;20105;-82
2023/12/11 04:00:36;;;;;;;14.13;3.07;;;;;;;;;;5028585;28;20037;-80
2023/12/11 04:03:02;;;;;;;16.37;2.77;;;;;;;;;;5030015;28;20033;-80
2023/12/11 04:05:28;;;;;;;18.80;3.40;;;;;;;;;;5029399;28;20025;-81
2023/12/11 04:07:54;;;;;;;21.10;3.37;;;;;;;;;;5046310;28;20041;-79
2023/12/11 04:10:20;;;;;;;22.67;3.77;;;;;;;;;;5045045;28;20044;-82
2023/12/11 04:12:46;;;;;;;16.43;3.40;;;;;;;;;;5028347;28;20064;-82
2023/12/11 04:15:12;;;;;;;13.20;2.97;;;;;;;;;;5045693;28;20029;-81
2023/12/11 04:17:42;;;;;;;11.73;2.53;;;;;;;;;;5045015;28;20044;-80
2023/12/11 04:20:08;;;;;;;15.37;2.80;;;;;;;;;;5026581;28;21895;-81
2023/12/11 04:22:34;;;;;;;13.90;2.67;;;;;;;;;;5032517;28;20033;-81
2023/12/11 04:25:00;;;;;;;24.40;3.70;;;;;;;;;;5042901;28;20034;-80
2023/12/11 04:27:35;;;;;;;18.80;3.20;;;;;;;;;;5025889;28;20097;-80
2023/12/11 04:30:01;;;;;;;19.67;3.20;;;;;;;;;;5026762;28;20093;-80
2023/12/11 04:32:28;;;;;;;23.63;4.37;;;;;;;;;;5045370;28;20532;-81
2023/12/11 04:34:54;;;;;;;19.43;3.13;;;;;;;;;;5028074;28;20109;-81
2023/12/11 04:37:20;;;;;;;11.50;2.43;;;;;;;;;;5027266;28;20083;-81
2023/12/11 04:39:46;;;;;;;14.27;2.50;;;;;;;;;;5028702;28;20034;-80
2023/12/11 04:42:15;;;;;;;20.37;3.13;;;;;;;;;;5044390;28;20064;-81
2023/12/11 04:44:41;;;;;;;16.50;3.67;;;;;;;;;;5021935;28;20081;-81
2023/12/11 04:47:07;;;;;;;11.53;2.90;;;;;;;;;;5030666;28;20069;-81
2023/12/11 04:49:33;;;;;;;20.47;2.80;;;;;;;;;;5027857;28;20013;-82
2023/12/11 04:51:59;;;;;;;16.10;3.30;;;;;;;;;;5022740;28;20038;-81
2023/12/11 04:54:26;;;;;;;16.47;2.97;;;;;;;;;;5029660;28;20022;-81
2023/12/11 04:56:52;;;;;;;18.80;3.53;;;;;;;;;;5044601;28;20021;-80
2023/12/11 04:59:18;;;;;;;21.47;3.10;;;;;;;;;;5028806;28;20042;-81
2023/12/11 05:01:44;;;;;;;23.73;4.43;;;;;;;;;;5027838;28;20022;-80
2023/12/11 05:04:10;;;;;;;21.17;3.57;;;;;;;;;;5023959;28;20026;-80
2023/12/11 05:06:36;;;;;;;19.67;2.97;;;;;;;;;;5031040;28;20018;-81
2023/12/11 05:09:02;;;;;;;14.77;2.90;;;;;;;;;;5050694;28;20076;-82
2023/12/11 05:11:28;;;;;;;14.40;3.17;;;;;;;;;;5025960;28;20022;-81
2023/12/11 05:13:54;;;;;;;21.17;3.33;;;;;;;;;;5021908;28;20170;-81
2023/12/11 05:16:20;;;;;;;14.93;2.30;;;;;;;;;;5044530;28;20021;-82
2023/12/11 05:18:46;;;;;;;34.17;4.10;;;;;;;;;;5032922;28;20029;-80
2023/12/11 05:21:13;;;;;;;18.10;2.73;;;;;;;;;;5031240;28;20041;-80
2023/12/11 05:23:39;;;;;;;12.67;2.90;;;;;;;;;;5044707;28;20034;-81
2023/12/11 05:26:05;;;;;;;26.13;3.70;;;;;;;;;;5029472;28;20464;-80
2023/12/11 05:28:31;;;;;;;27.27;4.23;;;;;;;;;;5045325;28;20102;-80
2023/12/11 05:30:57;;;;;;;28.37;3.20;;;;;;;;;;5050803;28;20029;-83
2023/12/11 05:33:23;;;;;;;13.87;1.60;;;;;;;;;;5032383;28;20100;-81
2023/12/11 05:35:52;;;;;;;8.53;0.60;;;;;;;;;;5034414;28;20091;-83
2023/12/11 05:38:18;;;;;;;7.83;1.23;;;;;;;;;;5031759;28;20029;-82
2023/12/11 05:40:45;;;;;;;9.73;1.30;;;;;;;;;;5024132;28;20042;-83
2023/12/11 05:43:11;;;;;;;7.03;1.30;;;;;;;;;;5034238;28;20014;-81
2023/12/11 05:45:37;;;;;;;11.80;1.10;;;;;;;;;;5023223;28;20038;-82
2023/12/11 05:48:03;;;;;;;15.17;3.50;;;;;;;;;;5042358;28;20026;-81
2023/12/11 05:50:29;;;;;;;22.67;3.23;;;;;;;;;;5030294;28;20049;-81
2023/12/11 05:52:56;;;;;;;20.40;3.63;;;;;;;;;;5029670;28;20040;-82
2023/12/11 05:55:22;;;;;;;22.30;3.60;;;;;;;;;;5022373;28;20022;-81
2023/12/11 05:57:48;;;;;;;38.30;4.83;;;;;;;;;;5017912;28;20036;-81
2023/12/11 06:00:14;;;;;;;30.60;4.47;;;;;;;;;;5040886;28;20049;-81
2023/12/11 06:02:40;;;;;;;29.93;3.37;;;;;;;;;;5017062;28;20025;-81
2023/12/11 06:05:08;;;;;;;19.30;2.77;;;;;;;;;;5030009;28;20041;-80
2023/12/11 06:07:34;;;;;;;26.67;3.40;;;;;;;;;;5027747;28;20021;-84
2023/12/11 06:10:00;;;;;;;20.43;3.97;;;;;;;;;;5029462;28;20029;-81
2023/12/11 06:12:26;;;;;;;27.13;4.17;;;;;;;;;;5027732;28;20017;-81
2023/12/11 06:14:52;;;;;;;21.60;3.87;;;;;;;;;;5039405;28;20021;-80
2023/12/11 06:17:19;;;;;;;19.17;3.80;;;;;;;;;;5012619;28;20076;-80
2023/12/11 06:19:45;;;;;;;22.00;4.00;;;;;;;;;;5021278;28;20555;-81
2023/12/11 06:22:11;;;;;;;21.40;3.80;;;;;;;;;;5015831;28;20037;-80
2023/12/11 06:24:41;;;;;;;27.13;3.60;;;;;;;;;;5022194;28;20093;-81
2023/12/11 06:27:07;;;;;;;26.40;4.77;;;;;;;;;;5017595;28;20029;-80
2023/12/11 06:29:33;;;;;;;16.47;3.47;;;;;;;;;;5017958;28;21727;-80
2023/12/11 06:31:59;;;;;;;18.37;3.30;;;;;;;;;;5017204;28;20029;-81
2023/12/11 06:34:25;;;;;;;11.27;2.07;;;;;;;;;;5037601;28;20339;-80
2023/12/11 06:36:51;;;;;;;17.47;2.80;;;;;;;;;;5034818;28;20021;-80
2023/12/11 06:39:18;;;;;;;14.70;3.03;;;;;;;;;;5022231;28;20033;-79
2023/12/11 06:41:44;;;;;;;17.93;3.37;;;;;;;;;;5021956;28;20028;-80
2023/12/11 06:44:10;;;;;;;23.57;2.70;;;;;;;;;;5021305;28;20057;-80
2023/12/11 06:46:37;;;;;;;22.27;3.50;;;;;;;;;;5022740;28;20028;-80
2023/12/11 06:49:03;;;;;;;13.87;2.93;;;;;;;;;;5041110;28;20026;-81
2023/12/11 06:51:29;;;;;;;23.53;3.07;;;;;;;;;;5022942;28;20033;-79
2023/12/11 06:53:58;;;;;;;20.67;2.93;;;;;;;;;;5021961;28;20060;-81
2023/12/11 06:56:25;;;;;;;16.90;2.63;;;;;;;;;;5020828;28;20043;-80
2023/12/11 06:58:52;;;;;;;17.90;2.63;;;;;;;;;;5037930;28;20120;-80
2023/12/11 07:01:18;;;;;;;19.17;3.03;;;;;;;;;;5022086;28;20040;-81
2023/12/11 07:03:48;;;;;;;18.93;3.27;;;;;;;;;;5019808;28;20099;-80
2023/12/11 07:06:17;;;;;;;21.23;3.53;;;;;;;;;;5019031;28;20033;-80
2023/12/11 07:08:43;;;;;;;22.13;3.30;;;;;;;;;;5019107;28;20373;-79
2023/12/11 07:11:09;;;;;;;18.00;3.20;;;;;;;;;;5021871;28;20033;-80
2023/12/11 07:13:35;;;;;;;18.07;2.97;;;;;;;;;;5020434;28;20474;-81
2023/12/11 07:16:01;;;;;;;18.13;3.93;;;;;;;;;;5021228;28;20025;-80
2023/12/11 07:18:27;;;;;;;26.57;4.03;;;;;;;;;;5020766;28;20033;-80
2023/12/11 07:20:53;;;;;;;28.43;4.50;;;;;;;;;;5021591;28;20025;-80
2023/12/11 07:23:20;;;;;;;18.40;4.00;;;;;;;;;;5021472;28;20134;-80
2023/12/11 07:25:47;;;;;;;21.87;3.70;;;;;;;;;;5019461;28;20044;-80
2023/12/11 07:28:13;;;;;;;20.63;2.83;;;;;;;;;;5017286;28;20037;-81
2023/12/11 07:30:39;;;;;;;18.57;3.27;;;;;;;;;;5017276;28;20391;-80
2023/12/11 07:33:05;;;;;;;25.63;4.67;;;;;;;;;;5018774;28;20040;-81
2023/12/11 07:35:31;;;;;;;45.40;4.10;;;;;;;;;;5019727;28;20032;-80
2023/12/11 07:37:57;;;;;;;19.47;3.50;;;;;;;;;;5022254;28;20042;-80
2023/12/11 07:40:24;;;;;;;25.30;3.70;;;;;;;;;;5021199;28;20061;-81
2023/12/11 07:42:50;;;;;;;19.87;2.77;;;;;;;;;;5022686;28;20041;-81
2023/12/11 07:45:16;;;;;;;27.50;3.60;;;;;;;;;;5022542;28;20033;-80
2023/12/11 07:47:42;;;;;;;25.17;2.87;;;;;;;;;;5038521;28;20093;-80
2023/12/11 07:50:09;;;;;;;22.20;3.93;;;;;;;;;;5021474;28;20029;-81
2023/12/11 07:52:35;;;;;;;20.43;4.60;;;;;;;;;;5021164;28;20029;-81
2023/12/11 07:55:01;;;;;;;21.27;4.30;;;;;;;;;;5020808;28;20146;-80
2023/12/11 07:57:28;;;;;;;17.67;3.17;;;;;;;;;;5017766;28;20063;-80
2023/12/11 07:59:54;;;;;;;27.77;3.40;;;;;;;;;;5021064;28;20034;-80
2023/12/11 08:02:20;;;;;;;25.30;4.00;;;;;;;;;;5017086;28;20461;-81
2023/12/11 08:04:46;;;;;;;16.13;3.20;;;;;;;;;;5017915;28;20434;-80
2023/12/11 08:07:16;;;;;;;18.63;3.40;;;;;;;;;;5017151;28;20124;-80
2023/12/11 08:09:42;;;;;;;25.80;4.23;;;;;;;;;;5018739;28;20056;-80
2023/12/11 08:12:09;;;;;;;21.67;3.33;;;;;;;;;;5017709;28;20029;-80
2023/12/11 08:14:35;;;;;;;19.27;3.80;;;;;;;;;;5017236;28;20044;-80
2023/12/11 08:17:01;;;;;;;18.50;3.33;;;;;;;;;;5018089;28;20033;-80
2023/12/11 08:19:27;;;;;;;22.50;2.93;;;;;;;;;;5019003;28;20029;-80
2023/12/11 08:21:53;;;;;;;19.40;3.53;;;;;;;;;;5019609;28;20089;-81
2023/12/11 08:24:19;;;;;;;23.37;3.63;;;;;;;;;;5022339;28;20056;-81
2023/12/11 08:26:46;;;;;;;18.20;4.23;;;;;;;;;;5023812;28;20363;-80
2023/12/11 08:29:12;;;;;;;14.57;2.57;;;;;;;;;;5024146;28;20028;-81
2023/12/11 08:31:39;;;;;;;17.93;3.10;;;;;;;;;;5021256;28;20366;-79
2023/12/11 08:34:05;;;;;;;16.93;2.83;;;;;;;;;;5038437;28;20022;-81
2023/12/11 08:36:31;;;;;;;29.30;3.83;;;;;;;;;;5024470;28;20030;-82
2023/12/11 08:38:57;;;;;;;15.63;3.27;;;;;;;;;;5041861;28;20029;-81
2023/12/11 08:41:23;;;;;;;29.00;4.23;;;;;;;;;;5025298;28;20033;-80
2023/12/11 08:43:49;;;;;;;21.37;2.97;;;;;;;;;;5041293;28;20045;-80
2023/12/11 08:46:15;;;;;;;17.20;2.70;;;;;;;;;;5040306;28;20094;-81
2023/12/11 08:48:43;;;;;;;32.60;4.33;;;;;;;;;;5023159;28;20052;-80
2023/12/11 08:51:09;;;;;;;22.23;2.90;;;;;;;;;;5027250;28;20104;-80
2023/12/11 08:53:36;;;;;;;16.57;3.43;;;;;;;;;;5023963;28;20030;-80
2023/12/11 08:56:02;;;;;;;23.63;3.43;;;;;;;;;;5019934;28;20025;-80
2023/12/11 08:58:28;;;;;;;16.10;3.73;;;;;;;;;;5023844;28;20041;-81
2023/12/11 09:00:57;;;;;;;23.87;4.13;;;;;;;;;;5023514;28;20029;-80
2023/12/11 09:03:23;;;;;;;17.77;3.73;;;;;;;;;;5041627;28;20079;-80
2023/12/11 09:05:49;;;;;;;19.10;3.90;;;;;;;;;;5020988;28;20033;-78
2023/12/11 09:08:17;;;;;;;21.03;3.53;;;;;;;;;;5024383;28;20044;-80
2023/12/11 09:10:49;;;;;;;16.27;2.80;;;;;;;;;;5023323;28;20022;-80
2023/12/11 09:13:15;;;;;;;19.97;3.37;;;;;;;;;;5024020;28;20033;-80
2023/12/11 09:15:41;;;;;;;25.73;4.20;;;;;;;;;;5025546;28;20052;-80
2023/12/11 09:18:08;;;;;;;20.70;3.93;;;;;;;;;;5025418;28;20166;-80
2023/12/11 09:20:34;;;;;;;18.70;3.17;;;;;;;;;;5018612;28;20572;-80
2023/12/11 09:23:00;;;;;;;13.70;3.43;;;;;;;;;;5018553;28;20033;-80
2023/12/11 09:25:47;;;;;;;17.10;3.37;;;;;;;;;;5022048;28;20041;-81
2023/12/11 09:28:15;;;;;;;16.77;2.80;;;;;;;;;;5016937;28;20056;-79
2023/12/11 09:30:41;;;;;;;14.67;3.07;;;;;;;;;;5044146;28;20013;-81
2023/12/11 09:33:07;;;;;;;18.70;3.00;;;;;;;;;;5041751;28;20033;-80
2023/12/11 09:35:38;;;;;;;15.17;3.60;;;;;;;;;;5037903;28;20047;-80
2023/12/11 09:38:17;;;;;;;;;;;;;;;;;;;;;
2023/12/11 09:40:50;;;;;;;18.40;2.70;;;;;;;;;;5041455;28;20112;-80
2023/12/11 09:43:18;;;;;;;10.77;2.10;;;;;;;;;;5036341;28;20441;-79
2023/12/11 09:45:45;;;;;;;16.63;3.57;;;;;;;;;;5020253;28;20041;-80
2023/12/11 09:48:19;;;;;;;18.53;3.37;;;;;;;;;;5019828;28;20033;-79
2023/12/11 09:50:45;;;;;;;12.77;2.53;;;;;;;;;;5020606;28;20353;-80
2023/12/11 09:53:11;;;;;;;26.20;3.67;;;;;;;;;;5021125;28;20076;-79
2023/12/11 09:55:39;;;;;;;18.13;3.90;;;;;;;;;;5024061;28;20033;-80
2023/12/11 09:58:06;;;;;;;20.20;3.00;;;;;;;;;;5038508;28;20044;-79
2023/12/11 10:00:33;;;;;;;20.40;3.93;;;;;;;;;;5018935;28;20025;-80
2023/12/11 10:03:01;;;;;;;15.00;3.10;;;;;;;;;;5017594;28;20120;-80
2023/12/11 10:06:06;;;;;;;;;;;;;;;;;;;;;
2023/12/11 10:08:42;;;;;;;15.87;2.97;;;;;;;;;;5035883;28;20121;-80
2023/12/11 10:11:12;;;;;;;24.57;4.07;;;;;;;;;;5019564;28;20036;-78
2023/12/11 10:13:39;;;;;;;21.00;3.33;;;;;;;;;;5040340;28;20028;-81
2023/12/11 10:16:06;;;;;;;24.00;3.73;;;;;;;;;;5026067;28;20057;-80
2023/12/11 10:18:32;;;;;;;10.57;2.80;;;;;;;;;;5037818;28;20052;-80
2023/12/11 10:20:59;;;;;;;23.80;3.67;;;;;;;;;;5034869;28;20041;-80
2023/12/11 10:23:25;;;;;;;22.27;3.07;;;;;;;;;;5018302;28;20040;-80
2023/12/11 10:25:54;;;;;;;15.07;3.13;;;;;;;;;;5016742;28;20126;-79
2023/12/11 10:28:21;;;;;;;23.40;3.37;;;;;;;;;;5030904;28;20052;-80
2023/12/11 10:30:51;;;;;;;20.93;3.03;;;;;;;;;;5034448;28;20033;-79
2023/12/11 10:33:18;;;;;;;19.73;2.80;;;;;;;;;;5022021;28;20552;-79
2023/12/11 10:35:45;;;;;;;14.57;2.37;;;;;;;;;;5015965;28;20045;-81
2023/12/11 10:38:11;;;;;;;10.87;2.70;;;;;;;;;;5012723;28;20045;-79
2023/12/11 10:40:41;;;;;;;14.93;2.60;;;;;;;;;;5017363;28;20442;-80
2023/12/11 10:43:08;;;;;;;18.37;2.70;;;;;;;;;;5039065;28;20021;-81
2023/12/11 10:45:34;;;;;;;16.47;3.10;;;;;;;;;;5018698;28;20091;-80
2023/12/11 10:48:01;;;;;;;15.33;2.50;;;;;;;;;;5023718;28;20469;-81
2023/12/11 10:50:27;;;;;;;14.70;2.50;;;;;;;;;;5037862;28;20456;-80
2023/12/11 10:52:54;;;;;;;20.67;4.43;;;;;;;;;;5032647;28;20124;-81
2023/12/11 10:55:20;;;;;;;15.90;3.30;;;;;;;;;;5024841;28;20399;-81
2023/12/11 10:57:46;;;;;;;10.27;2.50;;;;;;;;;;5019871;28;20033;-80
2023/12/11 11:00:15;;;;;;;14.27;2.53;;;;;;;;;;5026322;28;20462;-82
2023/12/11 11:02:43;;;;;;;12.57;3.03;;;;;;;;;;5020909;28;20357;-81
2023/12/11 11:05:10;;;;;;;19.83;2.97;;;;;;;;;;5029609;28;20025;-80
2023/12/11 11:07:37;;;;;;;20.50;3.13;;;;;;;;;;5022445;28;20044;-82
2023/12/11 11:10:20;;;;;;;19.47;2.93;;;;;;;;;;5036776;28;20032;-80
2023/12/11 11:13:05;;;;;;;19.63;2.53;;;;;;;;;;5019944;28;20025;-81
2023/12/11 11:15:31;;;;;;;13.37;2.73;;;;;;;;;;5021782;28;20083;-80
2023/12/11 11:18:00;;;;;;;16.30;2.70;;;;;;;;;;5021282;28;20022;-81
2023/12/11 11:20:30;;;;;;;13.03;3.17;;;;;;;;;;5013573;28;20072;-80
2023/12/11 11:23:14;;;;;;;18.37;2.50;;;;;;;;;;5017360;28;20087;-81
2023/12/11 11:25:40;;;;;;;22.50;3.37;;;;;;;;;;5032329;28;20037;-81
2023/12/11 11:28:07;;;;;;;15.60;3.10;;;;;;;;;;5019909;28;20454;-81
2023/12/11 11:30:43;;;;;;;23.77;2.60;;;;;;;;;;5027813;28;20160;-81
2023/12/11 11:33:10;;;;;;;21.77;3.33;;;;;;;;;;5033680;28;20026;-81
2023/12/11 11:35:45;;;;;;;23.40;3.23;;;;;;;;;;5011547;28;20057;-80
2023/12/11 11:38:11;;;;;;;20.70;3.23;;;;;;;;;;5020267;28;20045;-81
2023/12/11 11:40:38;;;;;;;15.30;3.20;;;;;;;;;;5020791;28;20037;-80
2023/12/11 11:43:04;;;;;;;14.80;2.37;;;;;;;;;;5018733;28;20025;-81
2023/12/11 11:45:30;;;;;;;16.00;3.10;;;;;;;;;;5009745;28;20038;-80
2023/12/11 11:47:56;;;;;;;22.13;4.27;;;;;;;;;;5011363;28;20048;-80
2023/12/11 11:50:22;;;;;;;24.80;4.53;;;;;;;;;;5034485;28;20600;-80
2023/12/11 11:52:54;;;;;;;16.77;2.53;;;;;;;;;;5012189;28;20091;-81
2023/12/11 11:55:20;;;;;;;17.20;2.72;;;;;;;;;;5011406;28;20377;-80
2023/12/11 11:57:46;;;;;;;19.10;2.70;;;;;;;;;;5014464;28;20114;-80
2023/12/11 12:00:12;;;;;;;19.43;2.77;;;;;;;;;;5031164;28;20479;-80
2023/12/11 12:02:46;;;;;;;19.47;4.50;;;;;;;;;;5018440;28;20026;-82
2023/12/11 12:05:12;;;;;;;17.97;4.00;;;;;;;;;;5024003;28;20029;-80
2023/12/11 12:07:39;;;;;;;13.47;3.13;;;;;;;;;;5018579;28;20041;-79
2023/12/11 12:10:05;;;;;;;20.73;2.83;;;;;;;;;;5027405;28;20029;-80
2023/12/11 12:12:32;;;;;;;23.20;3.63;;;;;;;;;;5017261;28;20044;-80
2023/12/11 12:15:05;;;;;;;21.33;4.43;;;;;;;;;;5025815;28;20057;-80
2023/12/11 12:17:31;;;;;;;24.30;3.73;;;;;;;;;;5016690;28;20033;-79
2023/12/11 12:19:57;;;;;;;30.13;3.93;;;;;;;;;;5018359;28;20041;-79
2023/12/11 12:22:23;;;;;;;27.17;4.07;;;;;;;;;;5018642;28;20106;-80
2023/12/11 12:24:49;;;;;;;22.30;4.17;;;;;;;;;;5017628;28;20029;-80
2023/12/11 12:27:21;;;;;;;25.33;4.20;;;;;;;;;;5018812;28;20029;-79
2023/12/11 12:29:47;;;;;;;28.17;4.57;;;;;;;;;;5019576;28;20108;-79
2023/12/11 12:32:14;;;;;;;30.03;4.83;;;;;;;;;;5018500;28;20034;-79
2023/12/11 12:34:44;;;;;;;24.07;4.73;;;;;;;;;;5016683;28;20112;-78
2023/12/11 12:37:10;;;;;;;23.00;4.03;;;;;;;;;;5034616;28;20026;-79
2023/12/11 12:39:39;;;;;;;22.43;4.50;;;;;;;;;;5034782;28;20437;-78
2023/12/11 12:42:05;;;;;;;20.90;4.10;;;;;;;;;;5016364;28;20442;-77
2023/12/11 12:44:31;;;;;;;24.73;3.70;;;;;;;;;;5018314;28;20021;-78
2023/12/11 12:47:02;;;;;;;18.20;4.37;;;;;;;;;;5017690;28;20461;-79
2023/12/11 12:49:30;;;;;;;19.30;4.10;;;;;;;;;;5017063;28;20029;-78
2023/12/11 12:51:57;;;;;;;21.47;3.70;;;;;;;;;;5018337;28;20025;-79
2023/12/11 12:54:26;;;;;;;19.37;3.97;;;;;;;;;;5034872;28;20040;-78
2023/12/11 12:56:56;;;;;;;16.10;2.80;;;;;;;;;;5017938;28;20083;-79
2023/12/11 12:59:25;;;;;;;11.73;2.60;;;;;;;;;;5016944;28;20021;-79
2023/12/11 13:01:52;;;;;;;13.40;2.53;;;;;;;;;;5017793;28;20037;-78
2023/12/11 13:04:20;;;;;;;13.90;2.83;;;;;;;;;;5016852;28;20033;-78
2023/12/11 13:06:46;;;;;;;16.20;2.87;;;;;;;;;;5016609;28;20044;-78
2023/12/11 13:09:28;;;;;;;21.20;2.83;;;;;;;;;;5015948;28;20099;-78
2023/12/11 13:11:53;;;;;;;16.33;2.50;;;;;;;;;;5034943;28;20373;-79
2023/12/11 13:14:19;;;;;;;11.73;2.60;;;;;;;;;;5018280;28;20464;-79
2023/12/11 13:16:47;;;;;;;13.37;2.83;;;;;;;;;;5017302;28;20076;-79
2023/12/11 13:19:13;;;;;;;15.27;2.93;;;;;;;;;;5022765;28;20033;-79
2023/12/11 13:21:39;;;;;;;14.73;2.67;;;;;;;;;;5015775;28;20036;-78
2023/12/11 13:24:05;;;;;;;12.60;2.43;;;;;;;;;;5016101;28;20040;-79
2023/12/11 13:26:31;;;;;;;8.93;2.47;;;;;;;;;;5018620;28;20048;-80
2023/12/11 13:28:58;;;;;;;17.30;2.47;;;;;;;;;;5018725;28;20041;-79
2023/12/11 13:31:27;;;;;;;10.20;2.20;;;;;;;;;;5015737;28;20422;-79
2023/12/11 13:33:53;;;;;;;13.47;2.03;;;;;;;;;;5016274;28;20044;-79
2023/12/11 13:36:19;;;;;;;8.20;1.43;;;;;;;;;;5017904;28;20030;-79
2023/12/11 13:38:48;;;;;;;12.17;1.87;;;;;;;;;;5018104;28;21623;-79
2023/12/11 13:41:14;;;;;;;9.73;1.70;;;;;;;;;;5017016;28;20042;-80
2023/12/11 13:43:40;;;;;;;8.13;1.43;;;;;;;;;;5023734;28;20068;-80
2023/12/11 13:46:06;;;;;;;13.80;1.87;;;;;;;;;;5022762;28;20044;-81
2023/12/11 13:48:33;;;;;;;9.77;1.50;;;;;;;;;;5024425;28;20026;-81
2023/12/11 13:50:59;;;;;;;9.67;1.67;;;;;;;;;;5027988;28;20040;-80
2023/12/11 13:53:25;;;;;;;5.50;1.20;;;;;;;;;;5028479;28;20037;-81
2023/12/11 13:55:51;;;;;;;6.30;1.27;;;;;;;;;;5023499;28;20091;-80
2023/12/11 13:58:17;;;;;;;8.10;2.10;;;;;;;;;;5018687;28;20037;-80
2023/12/11 14:00:44;;;;;;;6.63;1.70;;;;;;;;;;5019130;28;20535;-80
2023/12/11 14:03:10;;;;;;;12.20;2.00;;;;;;;;;;5020020;28;20037;-80
2023/12/11 14:05:39;;;;;;;6.27;2.10;;;;;;;;;;5020364;28;20097;-81
2023/12/11 14:08:05;;;;;;;12.63;3.10;;;;;;;;;;5023791;28;20075;-81
2023/12/11 14:10:33;;;;;;;14.77;2.83;;;;;;;;;;5052156;28;20021;-81
2023/12/11 14:12:59;;;;;;;8.70;1.80;;;;;;;;;;5030106;28;20029;-82
2023/12/11 14:15:27;;;;;;;7.83;1.87;;;;;;;;;;5030884;28;20032;-80
2023/12/11 14:17:53;;;;;;;6.67;2.40;;;;;;;;;;5026467;28;20037;-79
2023/12/11 14:20:19;;;;;;;6.70;2.20;;;;;;;;;;5048789;28;20093;-80
2023/12/11 14:22:46;;;;;;;13.27;2.23;;;;;;;;;;5029337;28;20030;-80
2023/12/11 14:25:12;;;;;;;13.30;2.40;;;;;;;;;;5031136;28;20036;-81
2023/12/11 14:27:38;;;;;;;6.87;1.53;;;;;;;;;;5030206;28;20127;-80
2023/12/11 14:30:04;;;;;;;8.73;1.53;;;;;;;;;;5022885;28;20033;-80
2023/12/11 14:32:31;;;;;;;6.03;1.50;;;;;;;;;;5022556;28;20033;-81